Weather at Shank N Bank Airport

Public forecast

Using degrees Fahrenheit for public forecast. Weather courtesy of forecast.io.

Closest aviation weather report (METAR) to Shank N Bank Airport

Closest report is Palacios Municipal Airport, 11.5 nm (21.2 km) E. Retrieved 2020/09/20 16:52 UTC (33 minutes ago):

KPSX 201652Z AUTO 36017G25KT 7SM CLR 28/18 A2995 RMK AO2 SLP140 T02830183

Closest aviation forecast (TAF) to Shank N Bank Airport

Closest forecast is Victoria Regional Airport, 24.6 nm (45.6 km) WNW. Retrieved 2020/09/20 12:30 UTC (5 hours ago):

TAF KVCT 201127Z 2012/2112 36010KT P6SM SKC FM201600 01013G22KT P6SM FEW050 SCT250 FM202100 01013G22KT P6SM VCSH BKN040 OVC150 FM210100 01012G22KT P6SM SHRA BKN040 FM210600 36012G25KT P6SM VCTS BKN020CB OVC100 TEMPO 2109/2112 36017G25KT 4SM TSRA OVC010CB